createdAt,value
2017-08-30T00:01:16.546Z,15.33
2017-08-30T00:03:44.002Z,15.83
2017-08-30T00:06:11.449Z,15.90
2017-08-30T00:08:38.905Z,16.17
2017-08-30T00:11:06.353Z,15.83
2017-08-30T00:13:33.801Z,15.73
2017-08-30T00:16:01.253Z,15.27
2017-08-30T00:18:28.711Z,16.63
2017-08-30T00:20:56.165Z,17.27
2017-08-30T00:23:23.612Z,15.70
2017-08-30T00:26:02.968Z,16.77
2017-08-30T00:28:30.414Z,14.97
2017-08-30T00:30:57.883Z,18.27
2017-08-30T00:33:25.333Z,18.97
2017-08-30T00:35:52.790Z,20.17
2017-08-30T00:38:20.243Z,20.40
2017-08-30T00:40:47.708Z,18.70
2017-08-30T00:43:15.153Z,19.90
2017-08-30T00:45:42.610Z,19.50
2017-08-30T00:48:10.069Z,19.10
2017-08-30T00:50:37.513Z,20.27
2017-08-30T00:53:04.979Z,19.20
2017-08-30T00:55:32.426Z,20.57
2017-08-30T00:57:59.889Z,18.63
2017-08-30T01:00:27.347Z,19.33
2017-08-30T01:02:54.798Z,19.40
2017-08-30T01:05:22.249Z,18.17
2017-08-30T01:07:49.705Z,20.57
2017-08-30T01:10:17.160Z,21.17
2017-08-30T01:12:44.606Z,19.07
2017-08-30T01:15:12.063Z,19.23
2017-08-30T01:17:39.512Z,19.70
2017-08-30T01:20:06.976Z,19.97
2017-08-30T01:22:34.419Z,19.37
2017-08-30T01:25:01.887Z,20.07
2017-08-30T01:27:29.322Z,20.03
2017-08-30T01:29:56.785Z,18.53
2017-08-30T01:32:24.232Z,17.23
2017-08-30T01:34:51.681Z,19.83
2017-08-30T01:37:19.143Z,20.17
2017-08-30T01:39:46.599Z,19.57
2017-08-30T01:42:14.054Z,19.33
2017-08-30T01:44:41.505Z,22.30
2017-08-30T01:47:08.967Z,21.27
2017-08-30T01:49:36.405Z,21.10
2017-08-30T01:52:03.891Z,19.07
2017-08-30T01:54:31.330Z,20.97
2017-08-30T01:56:58.780Z,21.97
2017-08-30T01:59:26.240Z,21.00
2017-08-30T02:01:53.678Z,21.77
2017-08-30T02:04:21.135Z,21.20
2017-08-30T02:06:48.581Z,21.60
2017-08-30T02:09:16.032Z,21.07
2017-08-30T02:11:43.486Z,21.10
2017-08-30T02:14:10.954Z,21.43
2017-08-30T02:16:38.411Z,20.80
2017-08-30T02:19:05.854Z,22.13
2017-08-30T02:21:33.302Z,22.30
2017-08-30T02:24:00.749Z,21.60
2017-08-30T02:26:28.229Z,22.33
2017-08-30T02:28:55.684Z,21.97
2017-08-30T02:31:23.147Z,21.23
2017-08-30T02:33:50.594Z,22.87
2017-08-30T02:36:18.071Z,21.87
2017-08-30T02:38:45.516Z,22.43
2017-08-30T02:41:12.961Z,20.73
2017-08-30T02:43:40.422Z,22.07
2017-08-30T02:46:07.869Z,21.50
2017-08-30T02:48:35.326Z,20.80
2017-08-30T02:51:02.781Z,20.63
2017-08-30T02:53:30.248Z,20.97
2017-08-30T02:55:57.697Z,21.47
2017-08-30T02:58:25.167Z,22.03
2017-08-30T03:00:52.620Z,21.30
2017-08-30T03:03:20.062Z,21.70
2017-08-30T03:05:47.531Z,22.83
2017-08-30T03:08:14.991Z,20.07
2017-08-30T03:10:42.451Z,20.50
2017-08-30T03:13:09.902Z,19.97
2017-08-30T03:15:37.366Z,20.17
2017-08-30T03:18:04.818Z,20.17
2017-08-30T03:20:32.277Z,20.40
2017-08-30T03:22:59.729Z,23.10
2017-08-30T03:25:27.191Z,20.23
2017-08-30T03:27:54.633Z,21.83
2017-08-30T03:30:22.078Z,20.93
2017-08-30T03:32:49.531Z,21.97
2017-08-30T03:35:16.978Z,21.10
2017-08-30T03:37:44.450Z,21.57
2017-08-30T03:40:11.904Z,20.70
2017-08-30T03:42:39.358Z,23.47
2017-08-30T03:45:06.797Z,22.20
2017-08-30T03:47:34.258Z,22.27
2017-08-30T03:50:01.715Z,23.07
2017-08-30T03:52:29.181Z,24.87
2017-08-30T03:54:56.634Z,23.10
2017-08-30T03:57:24.089Z,22.63
2017-08-30T03:59:51.547Z,23.80
2017-08-30T04:02:18.994Z,21.23
2017-08-30T04:04:46.444Z,21.63
2017-08-30T04:07:13.906Z,22.93
2017-08-30T04:09:41.363Z,22.90
2017-08-30T04:12:08.814Z,21.00
2017-08-30T04:14:36.271Z,20.67
2017-08-30T04:17:03.728Z,21.20
2017-08-30T04:19:31.192Z,22.07
2017-08-30T04:21:58.645Z,23.20
2017-08-30T04:24:26.093Z,19.90
2017-08-30T04:26:53.557Z,21.80
2017-08-30T04:29:21.013Z,19.80
2017-08-30T04:31:48.474Z,21.77
2017-08-30T04:34:15.930Z,20.27
2017-08-30T04:36:43.393Z,21.53
2017-08-30T04:39:10.858Z,20.17
2017-08-30T04:41:38.312Z,21.40
2017-08-30T04:44:05.773Z,19.60
2017-08-30T04:46:33.218Z,18.47
2017-08-30T04:49:00.670Z,19.00
2017-08-30T04:51:28.114Z,18.97
2017-08-30T04:53:55.583Z,21.10
2017-08-30T04:56:23.037Z,20.30
2017-08-30T04:58:50.495Z,19.93
2017-08-30T05:01:17.953Z,19.33
2017-08-30T05:03:45.407Z,19.63
2017-08-30T05:06:12.857Z,19.70
2017-08-30T05:08:40.328Z,18.20
2017-08-30T05:11:07.777Z,19.00
2017-08-30T05:13:35.237Z,18.60
2017-08-30T05:16:02.690Z,18.73
2017-08-30T05:18:30.147Z,19.47
2017-08-30T05:20:57.601Z,17.97
2017-08-30T05:23:25.050Z,18.07
2017-08-30T05:25:52.507Z,20.03
2017-08-30T05:28:19.969Z,18.33
2017-08-30T05:30:47.417Z,18.37
2017-08-30T05:33:14.869Z,18.70
2017-08-30T05:35:42.328Z,17.70
2017-08-30T05:38:09.772Z,19.67
2017-08-30T05:40:37.240Z,18.80
2017-08-30T05:43:04.692Z,19.17
2017-08-30T05:45:32.141Z,19.23
2017-08-30T05:47:59.632Z,18.43
2017-08-30T05:50:27.083Z,18.33
2017-08-30T05:52:54.539Z,18.10
2017-08-30T05:55:21.999Z,18.43
2017-08-30T05:57:49.458Z,18.67
2017-08-30T06:00:16.909Z,17.27
2017-08-30T06:02:44.371Z,17.03
2017-08-30T06:05:11.822Z,17.50
2017-08-30T06:07:39.278Z,17.10
2017-08-30T06:10:06.726Z,17.90
2017-08-30T06:12:34.197Z,17.53
2017-08-30T06:15:01.642Z,17.30
2017-08-30T06:17:29.102Z,16.80
2017-08-30T06:19:56.558Z,16.80
2017-08-30T06:22:24.002Z,15.57
2017-08-30T06:24:51.454Z,15.23
2017-08-30T06:27:18.907Z,16.07
2017-08-30T06:29:46.370Z,17.07
2017-08-30T06:32:13.813Z,16.53
2017-08-30T06:34:41.276Z,16.50
2017-08-30T06:37:08.726Z,17.30
2017-08-30T06:39:36.171Z,15.87
2017-08-30T06:42:03.627Z,17.27
2017-08-30T06:44:31.074Z,16.13
2017-08-30T06:46:58.521Z,17.50
2017-08-30T06:49:25.978Z,18.17
2017-08-30T06:51:53.443Z,17.90
2017-08-30T06:54:20.888Z,18.20
2017-08-30T06:56:48.350Z,17.30
2017-08-30T06:59:15.802Z,18.70
2017-08-30T07:01:43.257Z,17.80
2017-08-30T07:04:10.705Z,16.97
2017-08-30T07:06:38.182Z,16.90
2017-08-30T07:09:05.637Z,16.60
2017-08-30T07:11:33.090Z,15.50
2017-08-30T07:14:00.541Z,16.53
2017-08-30T07:16:27.994Z,15.37
2017-08-30T07:18:55.450Z,15.63
2017-08-30T07:21:22.897Z,14.27
2017-08-30T07:23:50.354Z,14.40
2017-08-30T07:26:17.802Z,14.60
2017-08-30T07:28:45.250Z,14.47
2017-08-30T07:31:12.701Z,12.40
2017-08-30T07:33:40.162Z,13.70
2017-08-30T07:36:07.615Z,13.37
2017-08-30T07:38:35.077Z,13.57
2017-08-30T07:41:02.529Z,14.90
2017-08-30T07:43:29.989Z,13.23
2017-08-30T07:45:57.446Z,13.30
2017-08-30T07:48:24.897Z,14.50
2017-08-30T07:50:52.357Z,13.43
2017-08-30T07:53:19.808Z,13.43
2017-08-30T07:55:47.261Z,11.43
2017-08-30T07:58:14.706Z,13.20
2017-08-30T08:00:42.153Z,14.03
2017-08-30T08:03:09.606Z,13.83
2017-08-30T08:05:37.063Z,11.67
2017-08-30T08:08:04.522Z,12.80
2017-08-30T08:10:31.970Z,14.40
2017-08-30T08:12:59.409Z,12.60
2017-08-30T08:15:26.871Z,11.60
2017-08-30T08:17:54.313Z,11.73
2017-08-30T08:20:21.776Z,11.77
2017-08-30T08:22:49.229Z,12.90
2017-08-30T08:25:16.677Z,13.03
2017-08-30T08:27:44.136Z,11.93
2017-08-30T08:30:11.582Z,12.00
2017-08-30T08:32:39.037Z,11.90
2017-08-30T08:35:06.490Z,13.17
2017-08-30T08:37:33.938Z,12.10
2017-08-30T08:40:01.390Z,13.40
2017-08-30T08:42:28.846Z,11.53
2017-08-30T08:44:56.287Z,11.27
2017-08-30T08:47:23.754Z,11.63
2017-08-30T08:49:51.202Z,11.10
2017-08-30T08:52:18.669Z,11.73
2017-08-30T08:54:46.119Z,10.17
2017-08-30T08:57:13.566Z,10.93
2017-08-30T08:59:41.020Z,11.73
2017-08-30T09:02:08.475Z,8.87
2017-08-30T09:04:35.931Z,12.30
2017-08-30T09:07:03.372Z,11.53
2017-08-30T09:09:30.838Z,11.50
2017-08-30T09:11:58.294Z,10.83
2017-08-30T09:14:25.751Z,11.30
2017-08-30T09:16:53.203Z,10.90
2017-08-30T09:19:20.658Z,11.17
2017-08-30T09:21:48.114Z,10.83
2017-08-30T09:24:15.584Z,10.07
2017-08-30T09:26:43.034Z,10.50
2017-08-30T09:29:10.486Z,11.70
2017-08-30T09:31:37.943Z,9.70
2017-08-30T09:34:05.395Z,10.33
2017-08-30T09:36:32.845Z,11.20
2017-08-30T09:39:00.290Z,10.90
2017-08-30T09:41:27.749Z,10.30
2017-08-30T09:43:55.198Z,11.03
2017-08-30T09:46:22.653Z,11.17
2017-08-30T09:48:50.104Z,11.20
2017-08-30T09:51:17.562Z,11.90
2017-08-30T09:56:19.088Z,11.20
2017-08-30T09:58:46.545Z,11.57
2017-08-30T10:01:13.992Z,10.80
2017-08-30T10:03:41.445Z,10.80
2017-08-30T10:06:08.902Z,10.43
2017-08-30T10:08:36.364Z,10.60
2017-08-30T10:11:03.804Z,11.03
2017-08-30T10:16:05.110Z,11.43
2017-08-30T10:18:32.576Z,11.03
2017-08-30T10:21:00.031Z,10.60
2017-08-30T10:23:27.485Z,9.90
2017-08-30T10:25:54.934Z,10.17
2017-08-30T10:28:22.392Z,10.13
2017-08-30T10:30:49.837Z,9.90
2017-08-30T10:33:17.299Z,11.30
2017-08-30T10:35:44.754Z,10.57
2017-08-30T10:38:12.212Z,10.20
2017-08-30T10:40:39.653Z,9.80
2017-08-30T10:43:07.105Z,8.80
2017-08-30T10:45:34.558Z,9.00
2017-08-30T10:48:01.997Z,10.03
2017-08-30T10:50:29.449Z,9.20
2017-08-30T10:52:56.892Z,9.50
2017-08-30T10:55:24.345Z,8.03
2017-08-30T10:57:51.794Z,9.33
2017-08-30T11:00:19.242Z,8.57
2017-08-30T11:02:46.693Z,7.73
2017-08-30T11:05:14.142Z,7.20
2017-08-30T11:07:41.588Z,8.00
2017-08-30T11:10:09.042Z,8.67
2017-08-30T11:12:36.484Z,7.73
2017-08-30T11:15:03.933Z,8.50
2017-08-30T11:17:31.396Z,8.57
2017-08-30T11:19:58.838Z,7.70
2017-08-30T11:22:26.283Z,7.30
2017-08-30T11:24:53.727Z,8.40
2017-08-30T11:27:21.173Z,7.33
2017-08-30T11:29:48.622Z,8.00
2017-08-30T11:32:16.070Z,7.87
2017-08-30T11:34:43.519Z,8.40
2017-08-30T11:37:10.969Z,7.77
2017-08-30T11:39:38.410Z,7.03
2017-08-30T11:42:05.859Z,7.07
2017-08-30T11:44:33.300Z,8.57
2017-08-30T11:47:00.749Z,8.03
2017-08-30T11:49:28.209Z,7.23
2017-08-30T11:51:55.652Z,6.70
2017-08-30T11:54:23.109Z,7.57
2017-08-30T11:56:50.557Z,6.70
2017-08-30T11:59:18.007Z,7.57
2017-08-30T12:01:45.450Z,6.60
2017-08-30T12:04:12.906Z,6.07
2017-08-30T12:06:40.350Z,7.43
2017-08-30T12:09:07.796Z,6.73
2017-08-30T12:11:35.242Z,6.50
2017-08-30T12:14:02.688Z,7.43
2017-08-30T12:16:30.146Z,7.70
2017-08-30T12:18:57.598Z,6.90
2017-08-30T12:21:25.050Z,7.77
2017-08-30T12:23:52.492Z,7.30
2017-08-30T12:26:19.950Z,7.17
2017-08-30T12:28:47.396Z,7.40
2017-08-30T12:31:14.843Z,7.20
2017-08-30T12:33:42.290Z,7.07
2017-08-30T12:36:09.734Z,8.03
2017-08-30T12:38:42.829Z,7.53
2017-08-30T12:41:10.279Z,7.90
2017-08-30T12:43:37.717Z,8.83
2017-08-30T12:46:05.201Z,7.57
2017-08-30T12:48:32.645Z,7.73
2017-08-30T12:51:00.106Z,6.60
2017-08-30T12:53:27.561Z,7.50
2017-08-30T12:55:55.004Z,8.37
2017-08-30T12:58:22.450Z,8.83
2017-08-30T13:00:49.911Z,8.33
2017-08-30T13:03:17.354Z,8.53
2017-08-30T13:05:44.797Z,9.50
2017-08-30T13:08:12.254Z,9.03
2017-08-30T13:10:39.697Z,7.77
2017-08-30T13:13:07.145Z,8.83
2017-08-30T13:15:34.590Z,8.50
2017-08-30T13:18:02.046Z,9.20
2017-08-30T13:20:29.488Z,9.13
2017-08-30T13:22:56.942Z,9.60
2017-08-30T13:25:24.386Z,8.93
2017-08-30T13:27:51.862Z,9.10
2017-08-30T13:30:19.293Z,8.07
2017-08-30T13:32:46.746Z,8.00
2017-08-30T13:35:14.194Z,8.70
2017-08-30T13:37:41.643Z,8.07
2017-08-30T13:40:09.101Z,8.53
2017-08-30T13:42:36.551Z,8.43
2017-08-30T13:45:04.009Z,7.10
2017-08-30T13:47:31.459Z,7.53
2017-08-30T13:49:58.906Z,6.87
2017-08-30T13:52:26.354Z,8.30
2017-08-30T13:54:53.812Z,6.73
2017-08-30T13:57:21.250Z,6.80
2017-08-30T13:59:48.715Z,7.17
2017-08-30T14:02:16.158Z,7.00
2017-08-30T14:04:43.629Z,7.13
2017-08-30T14:07:11.073Z,7.83
2017-08-30T14:09:38.521Z,9.40
2017-08-30T14:12:05.970Z,7.80
2017-08-30T14:14:33.421Z,7.20
2017-08-30T14:17:00.874Z,7.90
2017-08-30T14:19:28.318Z,7.07
2017-08-30T14:21:55.782Z,8.80
2017-08-30T14:24:23.238Z,8.67
2017-08-30T14:26:50.960Z,8.80
2017-08-30T14:29:18.393Z,7.00
2017-08-30T14:31:45.846Z,8.57
2017-08-30T14:34:13.297Z,7.70
2017-08-30T14:36:40.754Z,7.80
2017-08-30T14:39:08.202Z,8.10
2017-08-30T14:41:35.663Z,8.10
2017-08-30T14:44:03.111Z,8.30
2017-08-30T14:46:30.561Z,7.23
2017-08-30T14:48:58.016Z,8.20
2017-08-30T14:51:25.457Z,8.37
2017-08-30T14:53:52.923Z,7.60
2017-08-30T14:56:20.361Z,7.30
2017-08-30T14:58:47.817Z,7.30
2017-08-30T15:01:15.257Z,6.90
2017-08-30T15:03:42.705Z,7.03
2017-08-30T15:06:10.157Z,8.00
2017-08-30T15:08:37.618Z,7.90
2017-08-30T15:11:05.070Z,8.00
2017-08-30T15:13:32.532Z,7.97
2017-08-30T15:15:59.983Z,8.10
2017-08-30T15:18:27.434Z,9.07
2017-08-30T15:20:54.883Z,7.97
2017-08-30T15:23:22.346Z,8.47
2017-08-30T15:25:49.799Z,8.80
2017-08-30T15:28:17.246Z,8.30
2017-08-30T15:30:44.703Z,7.73
2017-08-30T15:33:12.146Z,9.07
2017-08-30T15:35:39.595Z,8.10
2017-08-30T15:38:07.039Z,8.37
2017-08-30T15:40:34.492Z,8.33
2017-08-30T15:43:01.937Z,7.60
2017-08-30T15:45:29.399Z,8.40
2017-08-30T15:47:56.856Z,8.07
2017-08-30T15:50:24.306Z,8.90
2017-08-30T15:52:51.764Z,8.07
2017-08-30T15:55:19.223Z,7.37
2017-08-30T15:57:46.681Z,7.60
2017-08-30T16:00:14.136Z,7.20
2017-08-30T16:02:41.585Z,7.37
2017-08-30T16:05:09.034Z,8.27
2017-08-30T16:07:36.482Z,7.57
2017-08-30T16:10:03.943Z,7.80
2017-08-30T16:12:31.385Z,7.20
2017-08-30T16:14:58.844Z,7.97
2017-08-30T16:17:26.284Z,7.90
2017-08-30T16:19:53.730Z,7.67
2017-08-30T16:22:21.182Z,8.00
2017-08-30T16:24:48.626Z,8.20
2017-08-30T16:27:16.074Z,8.40
2017-08-30T16:29:43.516Z,8.20
2017-08-30T16:32:10.973Z,8.07
2017-08-30T16:34:38.429Z,8.10
2017-08-30T16:37:05.885Z,7.70
2017-08-30T16:39:33.326Z,7.43
2017-08-30T16:42:00.771Z,7.90
2017-08-30T16:44:28.226Z,7.47
2017-08-30T16:46:55.676Z,8.30
2017-08-30T16:49:23.127Z,8.50
2017-08-30T16:51:51.377Z,8.17
2017-08-30T16:54:18.827Z,8.57
2017-08-30T16:56:46.278Z,7.90
2017-08-30T16:59:13.737Z,8.80
2017-08-30T17:01:41.183Z,8.30
2017-08-30T17:04:08.626Z,8.50
2017-08-30T17:06:36.073Z,9.30
2017-08-30T17:09:03.524Z,8.97
2017-08-30T17:11:30.978Z,8.57
2017-08-30T17:13:58.434Z,8.53
2017-08-30T17:16:25.885Z,8.87
2017-08-30T17:18:53.346Z,9.00
2017-08-30T17:21:20.815Z,8.17
2017-08-30T17:23:48.263Z,8.30
2017-08-30T17:26:15.709Z,7.80
2017-08-30T17:28:43.158Z,9.50
2017-08-30T17:31:10.606Z,8.47
2017-08-30T17:33:38.061Z,9.10
2017-08-30T17:36:05.526Z,9.40
2017-08-30T17:38:35.305Z,9.10
2017-08-30T17:41:02.750Z,8.40
2017-08-30T17:43:30.205Z,9.60
2017-08-30T17:45:57.656Z,8.53
2017-08-30T17:50:11.981Z,8.43
2017-08-30T17:52:39.438Z,8.37
2017-08-30T17:55:06.892Z,10.00
2017-08-30T17:57:34.334Z,8.83
2017-08-30T18:00:01.793Z,8.50
2017-08-30T18:02:29.242Z,10.10
2017-08-30T18:04:56.697Z,9.50
2017-08-30T18:07:24.235Z,9.50
2017-08-30T18:09:51.706Z,10.60
2017-08-30T18:12:19.212Z,20.63
2017-08-30T18:14:46.672Z,28.97
2017-08-30T18:17:14.127Z,8.77
2017-08-30T18:19:41.603Z,10.50
2017-08-30T18:22:09.042Z,9.60
2017-08-30T18:24:36.498Z,10.00
2017-08-30T18:27:03.942Z,10.07
2017-08-30T18:29:31.626Z,10.03
2017-08-30T18:31:59.076Z,10.43
2017-08-30T18:34:26.642Z,10.47
2017-08-30T18:36:54.962Z,11.43
2017-08-30T18:39:22.415Z,11.10
2017-08-30T18:41:49.862Z,10.40
2017-08-30T18:44:17.313Z,9.60
2017-08-30T18:46:44.762Z,9.63
2017-08-30T18:49:12.219Z,9.83
2017-08-30T18:51:39.666Z,10.33
2017-08-30T18:54:07.109Z,8.80
2017-08-30T18:56:34.569Z,11.40
2017-08-30T18:59:02.012Z,9.80
2017-08-30T19:01:29.483Z,9.90
2017-08-30T19:03:56.935Z,9.90
2017-08-30T19:06:25.287Z,9.90
2017-08-30T19:08:52.810Z,8.63
2017-08-30T19:11:20.259Z,8.70
2017-08-30T19:13:47.713Z,9.30
2017-08-30T19:16:15.169Z,9.30
2017-08-30T19:18:42.636Z,9.30
2017-08-30T19:21:10.089Z,10.13
2017-08-30T19:23:37.537Z,11.10
2017-08-30T19:26:04.986Z,9.30
2017-08-30T19:28:32.446Z,10.67
2017-08-30T19:30:59.906Z,9.03
2017-08-30T19:33:27.352Z,9.73
2017-08-30T19:35:54.831Z,9.63
2017-08-30T19:38:22.294Z,10.03
2017-08-30T19:40:49.738Z,8.90
2017-08-30T19:43:17.201Z,8.00
2017-08-30T19:45:44.641Z,8.40
2017-08-30T19:48:12.094Z,9.00
2017-08-30T19:50:39.538Z,9.40
2017-08-30T19:53:07.005Z,10.07
2017-08-30T19:55:34.450Z,8.57
2017-08-30T19:58:01.901Z,9.97
2017-08-30T20:00:29.396Z,9.50
2017-08-30T20:02:56.860Z,9.00
2017-08-30T20:05:24.315Z,8.70
2017-08-30T20:07:51.766Z,8.20
2017-08-30T20:10:19.218Z,8.90
2017-08-30T20:12:46.721Z,10.87
2017-08-30T20:15:14.634Z,9.93
2017-08-30T20:17:42.072Z,8.40
2017-08-30T20:20:09.528Z,9.03
2017-08-30T20:22:36.975Z,8.00
2017-08-30T20:25:04.441Z,8.70
2017-08-30T20:27:32.155Z,9.43
2017-08-30T20:29:59.603Z,9.17
2017-08-30T20:32:27.059Z,8.33
2017-08-30T20:34:54.499Z,8.30
2017-08-30T20:37:21.974Z,8.33
2017-08-30T20:39:49.408Z,8.50
2017-08-30T20:42:16.881Z,8.43
2017-08-30T20:44:44.334Z,8.77
2017-08-30T20:47:11.782Z,8.67
2017-08-30T20:49:39.243Z,8.10
2017-08-30T20:52:06.704Z,7.10
2017-08-30T20:54:34.426Z,8.00
2017-08-30T20:57:01.861Z,7.67
2017-08-30T20:59:29.321Z,8.40
2017-08-30T21:01:56.766Z,8.40
2017-08-30T21:04:24.396Z,7.50
2017-08-30T21:06:52.271Z,8.00
2017-08-30T21:09:19.726Z,8.70
2017-08-30T21:11:47.174Z,8.80
2017-08-30T21:14:14.626Z,9.97
2017-08-30T21:16:42.078Z,8.80
2017-08-30T21:19:09.534Z,8.10
2017-08-30T21:21:36.977Z,9.70
2017-08-30T21:24:04.437Z,8.20
2017-08-30T21:26:31.882Z,7.33
2017-08-30T21:28:59.329Z,7.33
2017-08-30T21:31:26.768Z,7.33
2017-08-30T21:33:54.221Z,7.00
2017-08-30T21:36:21.665Z,7.93
2017-08-30T21:38:49.136Z,9.00
2017-08-30T21:41:16.580Z,6.77
2017-08-30T21:43:44.020Z,6.37
2017-08-30T21:46:11.473Z,7.20
2017-08-30T21:48:38.926Z,7.50
2017-08-30T21:51:06.378Z,6.90
2017-08-30T21:53:33.826Z,6.68
2017-08-30T21:56:01.277Z,7.20
2017-08-30T21:58:28.730Z,6.40
2017-08-30T22:00:57.058Z,6.03
2017-08-30T22:03:24.501Z,6.60
2017-08-30T22:05:51.949Z,7.20
2017-08-30T22:08:19.393Z,6.67
2017-08-30T22:10:46.850Z,6.17
2017-08-30T22:13:14.292Z,7.07
2017-08-30T22:15:41.794Z,8.17
2017-08-30T22:18:09.244Z,4.90
2017-08-30T22:20:36.703Z,6.23
2017-08-30T22:23:04.165Z,7.07
2017-08-30T22:25:31.613Z,9.07
2017-08-30T22:27:59.062Z,7.33
2017-08-30T22:30:26.515Z,6.80
2017-08-30T22:32:53.988Z,7.10
2017-08-30T22:35:21.552Z,8.03
2017-08-30T22:37:49.014Z,7.70
2017-08-30T22:40:16.453Z,6.87
2017-08-30T22:42:43.902Z,4.90
2017-08-30T22:45:11.345Z,6.80
2017-08-30T22:47:38.839Z,6.83
2017-08-30T22:50:06.278Z,6.27
2017-08-30T22:52:33.730Z,5.67
2017-08-30T22:55:01.198Z,4.93
2017-08-30T22:57:28.658Z,6.77
2017-08-30T22:59:56.103Z,5.10
2017-08-30T23:02:23.553Z,4.27
2017-08-30T23:04:50.998Z,6.33
2017-08-30T23:07:18.483Z,5.43
2017-08-30T23:09:45.921Z,5.27
2017-08-30T23:12:13.377Z,5.50
2017-08-30T23:14:40.827Z,5.83
2017-08-30T23:17:08.274Z,5.63
2017-08-30T23:19:35.714Z,7.60
2017-08-30T23:22:03.233Z,6.03
2017-08-30T23:24:30.678Z,4.50
2017-08-30T23:26:58.126Z,4.97
2017-08-30T23:29:25.574Z,4.70
2017-08-30T23:31:53.049Z,4.23
2017-08-30T23:34:20.517Z,4.30
2017-08-30T23:36:47.962Z,4.73
2017-08-30T23:39:15.417Z,4.20
2017-08-30T23:41:42.991Z,3.00
2017-08-30T23:44:10.434Z,3.70
2017-08-30T23:46:37.872Z,3.70
2017-08-30T23:49:05.326Z,4.27
2017-08-30T23:51:32.768Z,3.77
2017-08-30T23:54:00.213Z,5.00
2017-08-30T23:56:27.659Z,3.67
2017-08-30T23:58:55.111Z,4.87
